Time;durP1;ratioP1;P1;durP2;ratioP2;P2;SDS_P1;SDS_P2;PMS_P1;PMS_P2;Temp;Humidity;BMP_temperature;BMP_pressure;BME280_temperature;BME280_humidity;BME280_pressure;Samples;Min_cycle;Max_cycle;Signal;HPM_P1;HPM_P2
2021/08/21 00:01:29;;;;;;;2.50;2.30;;;14.80;99.90;;;;;;4961794;28;20436;-74
2021/08/21 00:03:55;;;;;;;2.90;2.67;;;14.70;99.90;;;;;;4962228;28;20897;-74
2021/08/21 00:06:20;;;;;;;2.80;2.60;;;14.70;99.90;;;;;;4962578;28;20393;-74
2021/08/21 00:08:46;;;;;;;3.00;2.70;;;14.70;99.90;;;;;;4973934;28;20918;-74
2021/08/21 00:11:12;;;;;;;2.80;2.60;;;14.60;99.90;;;;;;4966254;28;20389;-73
2021/08/21 00:13:37;;;;;;;2.55;2.35;;;14.60;99.90;;;;;;4942083;28;20422;-75
2021/08/21 00:16:03;;;;;;;2.63;2.42;;;14.60;99.90;;;;;;4969036;28;20843;-73
2021/08/21 00:18:29;;;;;;;3.22;2.72;;;14.60;99.90;;;;;;4975695;28;20392;-74
2021/08/21 00:20:55;;;;;;;2.70;2.50;;;14.60;99.90;;;;;;4970726;28;20471;-74
2021/08/21 00:23:20;;;;;;;2.80;2.60;;;14.60;99.90;;;;;;4966718;28;20404;-74
2021/08/21 00:25:46;;;;;;;2.80;2.60;;;14.60;99.90;;;;;;4969019;28;20917;-74
2021/08/21 00:28:12;;;;;;;3.33;3.03;;;14.60;99.90;;;;;;4958580;28;20401;-74
2021/08/21 00:30:37;;;;;;;2.88;2.67;;;14.60;99.90;;;;;;4961981;28;20389;-74
2021/08/21 00:33:04;;;;;;;2.67;2.47;;;14.60;99.90;;;;;;4962912;28;20904;-74
2021/08/21 00:35:30;;;;;;;2.53;2.33;;;14.60;99.90;;;;;;4962964;28;20440;-74
2021/08/21 00:37:55;;;;;;;2.95;2.70;;;14.60;99.90;;;;;;4975799;28;20397;-74
2021/08/21 00:40:21;;;;;;;2.60;2.40;;;14.50;99.90;;;;;;4962281;28;20405;-74
2021/08/21 00:42:49;;;;;;;2.90;2.50;;;14.50;99.90;;;;;;4946604;28;20531;-74
2021/08/21 00:45:14;;;;;;;3.47;3.00;;;14.50;99.90;;;;;;4963082;28;20400;-73
2021/08/21 00:47:40;;;;;;;3.03;2.83;;;14.50;99.90;;;;;;4971695;28;20395;-73
2021/08/21 00:50:06;;;;;;;2.67;2.47;;;14.40;99.90;;;;;;4972185;28;20472;-73
2021/08/21 00:52:34;;;;;;;2.90;2.70;;;14.40;99.90;;;;;;4963979;28;20471;-73
2021/08/21 00:55:01;;;;;;;2.85;2.65;;;14.30;99.90;;;;;;4965250;28;20471;-73
2021/08/21 00:57:27;;;;;;;2.60;2.40;;;14.30;99.90;;;;;;4963294;28;20417;-73
2021/08/21 00:59:53;;;;;;;3.42;2.97;;;14.30;99.90;;;;;;4962941;28;20393;-74
2021/08/21 01:02:19;;;;;;;2.58;2.38;;;14.30;99.90;;;;;;4948299;28;20425;-73
2021/08/21 01:04:50;;;;;;;2.65;2.45;;;14.20;99.90;;;;;;4988281;28;20404;-73
2021/08/21 01:07:19;;;;;;;2.38;2.28;;;14.20;99.90;;;;;;4979086;28;20488;-73
2021/08/21 01:09:45;;;;;;;2.97;2.67;;;14.20;99.90;;;;;;4964085;28;20381;-73
2021/08/21 01:12:15;;;;;;;2.67;2.47;;;14.20;99.90;;;;;;4962661;28;20581;-73
2021/08/21 01:14:42;;;;;;;2.90;2.70;;;14.10;99.90;;;;;;4965848;28;20463;-73
2021/08/21 01:17:07;;;;;;;3.20;2.90;;;14.00;99.90;;;;;;4979831;28;20750;-73
2021/08/21 01:19:36;;;;;;;2.73;2.53;;;14.00;99.90;;;;;;4970049;28;20819;-73
2021/08/21 01:22:04;;;;;;;3.78;2.78;;;14.00;99.90;;;;;;4994427;28;20761;-73
2021/08/21 01:24:29;;;;;;;3.07;2.73;;;13.90;99.90;;;;;;4980063;28;20401;-73
2021/08/21 01:26:56;;;;;;;2.30;2.10;;;13.90;99.90;;;;;;4967975;28;20631;-73
2021/08/21 01:29:30;;;;;;;2.95;2.75;;;13.90;99.90;;;;;;4966568;28;20879;-73
2021/08/21 01:32:02;;;;;;;2.67;2.47;;;13.80;99.90;;;;;;4965545;28;21090;-73
2021/08/21 01:34:28;;;;;;;3.00;2.80;;;13.80;99.90;;;;;;4980669;28;20404;-73
2021/08/21 01:36:54;;;;;;;3.72;3.38;;;13.80;99.90;;;;;;4972382;28;20396;-72
2021/08/21 01:39:55;;;;;;;3.25;3.00;;;13.80;99.90;;;;;;4920171;29;20487;-73
2021/08/21 01:42:30;;;;;;;2.97;2.70;;;13.70;99.90;;;;;;4941403;28;20440;-73
2021/08/21 01:44:55;;;;;;;2.75;2.47;;;13.60;99.90;;;;;;4963851;28;20805;-72
2021/08/21 01:47:22;;;;;;;3.22;2.92;;;13.60;99.90;;;;;;4960941;28;21187;-72
2021/08/21 01:49:58;;;;;;;3.00;2.80;;;13.50;99.90;;;;;;4970969;28;20764;-74
2021/08/21 01:52:25;;;;;;;2.85;2.65;;;13.50;99.90;;;;;;4948757;28;20426;-73
2021/08/21 01:54:51;;;;;;;2.85;2.65;;;13.50;99.90;;;;;;4979884;28;20936;-72
2021/08/21 01:57:17;;;;;;;3.08;2.83;;;13.50;99.90;;;;;;4970080;28;20428;-72
2021/08/21 02:00:12;;;;;;;2.92;2.63;;;13.50;99.90;;;;;;4980338;28;20401;-73
2021/08/21 02:02:41;;;;;;;2.85;2.60;;;13.40;99.90;;;;;;4979160;28;20405;-72
2021/08/21 02:05:20;;;;;;;3.28;2.97;;;13.40;99.90;;;;;;4966839;28;20401;-72
2021/08/21 02:07:46;;;;;;;2.90;2.70;;;13.30;99.90;;;;;;4962799;28;20405;-72
2021/08/21 02:10:12;;;;;;;3.22;2.92;;;13.40;99.90;;;;;;4979547;28;20909;-73
2021/08/21 02:12:37;;;;;;;3.10;2.90;;;13.40;99.90;;;;;;4967043;28;20398;-73
2021/08/21 02:15:14;;;;;;;3.20;2.90;;;13.40;99.90;;;;;;4962683;28;20798;-73
2021/08/21 02:17:45;;;;;;;3.05;2.85;;;13.30;99.90;;;;;;4946732;28;20912;-73
2021/08/21 02:20:31;;;;;;;2.75;2.55;;;13.30;99.90;;;;;;4929671;28;20483;-72
2021/08/21 02:22:58;;;;;;;2.80;2.50;;;13.20;99.90;;;;;;4970828;28;20463;-73
2021/08/21 02:25:24;;;;;;;3.17;2.97;;;13.20;99.90;;;;;;4964877;28;20389;-73
2021/08/21 02:27:58;;;;;;;2.90;2.70;;;13.20;99.90;;;;;;4976178;28;20924;-73
2021/08/21 02:30:24;;;;;;;3.13;2.83;;;13.20;99.90;;;;;;4963358;28;20453;-73
2021/08/21 02:32:50;;;;;;;3.40;3.10;;;13.20;99.90;;;;;;4972326;28;20401;-73
2021/08/21 02:35:16;;;;;;;3.13;2.93;;;13.20;99.90;;;;;;4997764;28;20403;-73
2021/08/21 02:37:41;;;;;;;2.75;2.55;;;13.20;99.90;;;;;;4962684;28;20395;-73
2021/08/21 02:40:07;;;;;;;2.67;2.47;;;13.20;99.90;;;;;;4980355;28;20821;-73
2021/08/21 02:42:33;;;;;;;3.30;3.00;;;13.20;99.90;;;;;;4962213;28;20417;-72
2021/08/21 02:44:59;;;;;;;3.30;3.00;;;13.20;99.90;;;;;;4995905;28;20400;-72
2021/08/21 02:47:24;;;;;;;3.30;3.00;;;13.10;99.90;;;;;;4974153;28;20393;-72
2021/08/21 02:49:50;;;;;;;3.00;2.75;;;13.10;99.90;;;;;;4978855;28;20393;-73
2021/08/21 02:52:16;;;;;;;2.93;2.73;;;13.10;99.90;;;;;;4977907;28;20389;-72
2021/08/21 02:54:42;;;;;;;3.37;3.07;;;13.10;99.90;;;;;;4978233;28;20435;-73
2021/08/21 02:57:09;;;;;;;3.72;3.10;;;13.00;99.90;;;;;;4976927;28;20397;-73
2021/08/21 02:59:36;;;;;;;2.70;2.50;;;13.00;99.90;;;;;;4960413;28;20427;-73
2021/08/21 03:02:04;;;;;;;3.22;2.97;;;13.00;99.90;;;;;;4977029;28;20396;-72
2021/08/21 03:04:32;;;;;;;2.60;2.40;;;13.10;99.90;;;;;;4970427;28;20397;-72
2021/08/21 03:06:58;;;;;;;3.13;2.83;;;13.10;99.90;;;;;;4967223;28;20393;-72
2021/08/21 03:09:43;;;;;;;2.85;2.65;;;13.10;99.90;;;;;;4980417;28;20393;-73
2021/08/21 03:12:09;;;;;;;3.47;3.13;;;13.10;99.90;;;;;;4969201;28;20391;-73
2021/08/21 03:14:50;;;;;;;3.20;2.90;;;13.10;99.90;;;;;;4971073;28;20778;-73
2021/08/21 03:17:16;;;;;;;2.90;2.70;;;13.10;99.90;;;;;;4966604;28;20391;-73
2021/08/21 03:19:42;;;;;;;3.20;2.90;;;13.10;99.90;;;;;;4976066;28;20415;-73
2021/08/21 03:22:09;;;;;;;3.50;3.20;;;13.20;99.90;;;;;;4946077;28;20377;-73
2021/08/21 03:24:37;;;;;;;3.47;3.10;;;13.20;99.90;;;;;;4962923;28;20390;-72
2021/08/21 03:27:03;;;;;;;3.73;2.90;;;13.20;99.90;;;;;;4961780;28;20431;-73
2021/08/21 03:29:29;;;;;;;3.22;2.92;;;13.20;99.90;;;;;;4960808;28;20798;-73
2021/08/21 03:31:55;;;;;;;2.70;2.50;;;13.30;99.90;;;;;;4961343;28;20396;-72
2021/08/21 03:34:25;;;;;;;3.20;2.90;;;13.30;99.90;;;;;;4966726;28;20416;-72
2021/08/21 03:36:52;;;;;;;3.22;3.03;;;13.30;99.90;;;;;;4957124;28;21297;-72
2021/08/21 03:39:19;;;;;;;3.65;3.35;;;13.30;99.90;;;;;;4979098;28;20399;-73
2021/08/21 03:41:46;;;;;;;4.80;3.03;;;13.40;99.90;;;;;;4965747;28;20410;-73
2021/08/21 03:44:11;;;;;;;3.70;3.40;;;13.40;99.90;;;;;;4962496;28;20466;-73
2021/08/21 03:46:38;;;;;;;3.50;3.20;;;13.40;99.90;;;;;;4977022;28;20399;-72
2021/08/21 03:49:06;;;;;;;3.67;3.30;;;13.50;99.90;;;;;;4960716;28;20419;-72
2021/08/21 03:51:31;;;;;;;4.13;3.80;;;13.50;99.90;;;;;;4962514;28;20393;-73
2021/08/21 03:53:57;;;;;;;4.53;4.00;;;13.60;99.90;;;;;;4953623;28;20391;-73
2021/08/21 03:56:24;;;;;;;3.67;3.38;;;13.60;99.90;;;;;;4976200;28;20440;-72
2021/08/21 03:58:54;;;;;;;3.40;3.10;;;13.60;99.90;;;;;;4968678;28;20407;-74
2021/08/21 04:01:20;;;;;;;3.95;3.58;;;13.60;99.90;;;;;;4959962;28;20401;-72
2021/08/21 04:03:49;;;;;;;4.47;4.07;;;13.70;99.90;;;;;;4962869;28;20440;-72
2021/08/21 04:06:16;;;;;;;3.83;3.42;;;13.70;99.90;;;;;;4961965;28;20905;-72
2021/08/21 04:08:43;;;;;;;3.43;3.13;;;13.70;99.90;;;;;;4952689;28;20389;-72
2021/08/21 04:11:10;;;;;;;3.55;3.25;;;13.80;99.90;;;;;;4959456;28;20416;-72
2021/08/21 04:13:46;;;;;;;3.55;3.25;;;13.80;99.90;;;;;;4968221;28;20424;-72
2021/08/21 04:16:12;;;;;;;3.53;3.22;;;13.90;99.90;;;;;;4967057;28;20401;-72
2021/08/21 04:18:38;;;;;;;3.75;3.45;;;13.90;99.90;;;;;;4948276;28;20390;-72
2021/08/21 04:21:05;;;;;;;3.70;3.40;;;14.00;99.90;;;;;;4979774;28;20401;-73
2021/08/21 04:23:31;;;;;;;3.80;3.50;;;14.00;99.90;;;;;;4964301;28;20438;-72
2021/08/21 04:26:04;;;;;;;3.63;3.33;;;14.00;99.90;;;;;;4982458;28;20416;-73
2021/08/21 04:28:30;;;;;;;4.20;3.38;;;14.10;99.90;;;;;;4962842;28;20894;-72
2021/08/21 04:30:56;;;;;;;3.80;3.50;;;14.20;99.90;;;;;;4967096;28;20408;-75
2021/08/21 04:33:21;;;;;;;4.30;3.90;;;14.20;99.90;;;;;;4971769;28;20414;-73
2021/08/21 04:35:48;;;;;;;4.18;3.78;;;14.20;99.90;;;;;;4968654;28;20447;-73
2021/08/21 04:38:14;;;;;;;3.20;3.00;;;14.30;99.90;;;;;;4962443;28;20479;-74
2021/08/21 04:40:51;;;;;;;3.42;3.13;;;14.30;99.90;;;;;;4970744;28;20413;-73
2021/08/21 04:43:17;;;;;;;3.90;3.50;;;14.40;99.90;;;;;;4959302;28;20589;-73
2021/08/21 04:45:43;;;;;;;4.20;3.45;;;14.40;99.90;;;;;;4954872;28;20421;-73
2021/08/21 04:48:10;;;;;;;3.50;3.20;;;14.40;99.90;;;;;;4956378;28;20396;-73
2021/08/21 04:50:36;;;;;;;3.80;3.50;;;14.40;99.90;;;;;;4964974;28;20427;-73
2021/08/21 04:53:03;;;;;;;4.00;2.90;;;14.50;99.90;;;;;;4971821;28;20405;-73
2021/08/21 04:55:29;;;;;;;3.35;3.05;;;14.50;99.90;;;;;;4982283;28;20401;-74
2021/08/21 04:57:56;;;;;;;3.83;3.53;;;14.50;99.90;;;;;;4964262;28;20420;-75
2021/08/21 05:00:22;;;;;;;3.58;3.28;;;14.60;99.90;;;;;;4963372;28;20471;-74
2021/08/21 05:03:08;;;;;;;3.95;3.65;;;14.70;99.90;;;;;;4957085;28;20416;-74
2021/08/21 05:05:35;;;;;;;4.40;4.00;;;14.50;99.90;;;;;;4973898;28;20398;-74
2021/08/21 05:08:02;;;;;;;4.00;3.60;;;14.50;99.90;;;;;;4962221;28;20439;-74
2021/08/21 05:10:28;;;;;;;3.40;3.20;;;14.50;99.90;;;;;;4968220;28;20440;-75
2021/08/21 05:12:54;;;;;;;4.13;3.80;;;14.50;99.90;;;;;;4974150;28;21080;-75
2021/08/21 05:15:21;;;;;;;3.95;3.65;;;14.40;99.90;;;;;;4963673;28;20963;-74
2021/08/21 05:18:07;;;;;;;3.55;3.22;;;14.40;99.90;;;;;;4963340;28;20460;-73
2021/08/21 05:20:53;;;;;;;3.53;3.22;;;14.40;99.90;;;;;;4964256;28;20878;-74
2021/08/21 05:23:20;;;;;;;4.65;4.10;;;14.50;99.90;;;;;;4944445;28;20454;-73
2021/08/21 05:25:47;;;;;;;3.57;3.13;;;14.60;99.90;;;;;;4979604;28;20420;-73
2021/08/21 05:28:14;;;;;;;4.03;3.55;;;14.70;99.90;;;;;;4956622;28;21117;-73
2021/08/21 05:30:40;;;;;;;3.97;3.67;;;14.70;99.90;;;;;;4971811;28;20483;-72
2021/08/21 05:33:10;;;;;;;4.03;3.63;;;14.80;99.90;;;;;;4977698;28;20448;-72
2021/08/21 05:35:36;;;;;;;3.38;3.03;;;14.80;99.90;;;;;;4977980;28;21015;-75
2021/08/21 05:38:02;;;;;;;6.20;3.72;;;14.90;99.90;;;;;;4978208;28;20933;-75
2021/08/21 05:40:28;;;;;;;3.70;3.40;;;15.00;99.90;;;;;;4978535;28;20400;-72
2021/08/21 05:42:53;;;;;;;4.93;4.10;;;15.00;99.90;;;;;;4945176;28;20432;-73
2021/08/21 05:45:19;;;;;;;4.10;3.70;;;15.10;99.90;;;;;;4962816;28;20397;-73
2021/08/21 05:47:45;;;;;;;3.85;3.45;;;15.10;99.90;;;;;;4962857;28;20928;-72
2021/08/21 05:50:11;;;;;;;3.80;3.50;;;15.10;99.90;;;;;;4980001;28;20468;-73
2021/08/21 05:52:37;;;;;;;4.20;3.78;;;15.20;99.90;;;;;;4967904;28;20801;-72
2021/08/21 05:55:03;;;;;;;3.60;3.30;;;15.30;99.90;;;;;;4963998;28;20423;-73
2021/08/21 05:57:40;;;;;;;4.97;3.43;;;15.40;99.90;;;;;;4949478;28;20404;-72
2021/08/21 06:00:08;;;;;;;6.90;4.10;;;15.50;99.90;;;;;;4963929;28;20396;-75
2021/08/21 06:02:39;;;;;;;4.88;4.13;;;15.50;99.90;;;;;;4977429;28;20480;-75
2021/08/21 06:05:05;;;;;;;4.15;3.70;;;15.60;99.90;;;;;;4946026;28;20504;-75
2021/08/21 06:07:30;;;;;;;3.92;3.17;;;15.70;99.90;;;;;;4962098;28;20397;-75
2021/08/21 06:09:57;;;;;;;4.07;3.67;;;15.80;99.90;;;;;;4964630;28;20487;-75
2021/08/21 06:12:23;;;;;;;4.53;3.53;;;15.90;99.90;;;;;;4977075;28;20432;-75
2021/08/21 06:14:49;;;;;;;3.60;3.30;;;15.90;99.90;;;;;;4962708;28;20416;-75
2021/08/21 06:17:15;;;;;;;3.97;3.63;;;15.90;99.90;;;;;;4995550;28;20403;-75
2021/08/21 06:19:40;;;;;;;4.33;3.93;;;16.10;99.90;;;;;;4978230;28;20385;-75
2021/08/21 06:22:06;;;;;;;4.35;3.95;;;16.20;99.90;;;;;;5002909;28;20404;-75
2021/08/21 06:24:32;;;;;;;3.93;3.63;;;16.20;99.90;;;;;;4980352;28;20419;-75
2021/08/21 06:26:58;;;;;;;3.85;3.55;;;16.30;99.90;;;;;;4961805;28;20916;-75
2021/08/21 06:29:23;;;;;;;4.00;3.60;;;16.30;99.90;;;;;;4963964;28;20402;-75
2021/08/21 06:31:49;;;;;;;4.30;3.90;;;16.40;99.90;;;;;;4961136;28;20439;-75
2021/08/21 06:34:15;;;;;;;3.60;3.30;;;16.60;99.90;;;;;;4960049;28;20469;-75
2021/08/21 06:36:40;;;;;;;4.47;3.83;;;16.60;99.90;;;;;;4968840;28;20410;-75
2021/08/21 06:39:06;;;;;;;4.03;3.63;;;16.70;99.90;;;;;;4961448;28;20400;-75
2021/08/21 06:41:32;;;;;;;4.45;4.05;;;16.80;99.90;;;;;;4961245;28;20801;-75
2021/08/21 06:43:58;;;;;;;4.88;4.38;;;17.00;99.90;;;;;;4962005;28;20511;-75
2021/08/21 06:46:39;;;;;;;5.13;4.07;;;17.10;99.90;;;;;;4972663;28;22056;-75
2021/08/21 06:49:05;;;;;;;4.33;3.93;;;17.20;99.90;;;;;;4961860;28;20818;-75
2021/08/21 06:51:31;;;;;;;5.83;3.70;;;17.30;99.90;;;;;;4978022;28;20396;-76
2021/08/21 06:53:56;;;;;;;5.50;4.68;;;17.40;99.90;;;;;;4979563;28;20454;-75
2021/08/21 06:56:22;;;;;;;4.30;3.90;;;17.50;99.90;;;;;;4961764;28;20431;-75
2021/08/21 06:58:48;;;;;;;3.83;3.53;;;17.60;99.90;;;;;;4966657;28;20396;-75
2021/08/21 07:01:13;;;;;;;4.80;3.70;;;17.70;99.90;;;;;;4959421;28;20412;-75
2021/08/21 07:03:39;;;;;;;5.40;4.43;;;17.70;99.90;;;;;;4978003;28;20450;-76
2021/08/21 07:06:06;;;;;;;4.13;3.80;;;17.80;99.90;;;;;;4960191;28;20458;-75
2021/08/21 07:08:32;;;;;;;4.13;3.83;;;17.90;99.90;;;;;;4961842;28;20393;-75
2021/08/21 07:10:57;;;;;;;4.00;3.70;;;18.00;99.90;;;;;;4978618;28;20396;-75
2021/08/21 07:13:24;;;;;;;4.43;4.03;;;18.10;99.90;;;;;;4960977;28;20422;-75
2021/08/21 07:15:51;;;;;;;4.53;4.05;;;18.30;99.90;;;;;;4959868;28;20411;-76
2021/08/21 07:18:17;;;;;;;5.23;4.10;;;18.30;99.90;;;;;;4960031;28;20455;-75
2021/08/21 07:20:42;;;;;;;3.75;3.45;;;18.40;99.90;;;;;;4977264;28;20829;-76
2021/08/21 07:23:08;;;;;;;3.97;3.40;;;18.50;99.90;;;;;;4960506;28;20389;-76
2021/08/21 07:25:34;;;;;;;4.90;3.75;;;18.60;99.90;;;;;;4966885;28;20404;-75
2021/08/21 07:28:00;;;;;;;3.83;3.53;;;18.80;99.90;;;;;;4976405;28;20393;-75
2021/08/21 07:30:26;;;;;;;4.90;4.03;;;18.80;99.90;;;;;;4976912;28;20393;-76
2021/08/21 07:32:51;;;;;;;4.35;3.95;;;18.90;99.90;;;;;;4973454;28;20400;-78
2021/08/21 07:35:17;;;;;;;4.20;3.80;;;19.00;99.90;;;;;;4978320;28;20427;-77
2021/08/21 07:37:43;;;;;;;4.13;3.80;;;19.10;99.90;;;;;;4955359;28;20414;-78
2021/08/21 07:40:09;;;;;;;4.32;3.92;;;19.10;99.90;;;;;;4979027;28;20426;-77
2021/08/21 07:42:35;;;;;;;3.97;3.63;;;19.20;99.90;;;;;;4951896;28;20442;-78
2021/08/21 07:45:01;;;;;;;4.23;3.83;;;19.30;99.90;;;;;;4973439;28;20393;-77
2021/08/21 07:47:26;;;;;;;4.10;3.70;;;19.40;99.90;;;;;;4961840;28;20965;-77
2021/08/21 07:49:52;;;;;;;4.40;4.00;;;19.60;99.90;;;;;;4959984;28;20393;-78
2021/08/21 07:52:18;;;;;;;4.25;3.85;;;19.70;99.90;;;;;;4972668;28;20921;-78
2021/08/21 07:54:43;;;;;;;4.32;3.92;;;19.80;99.90;;;;;;4962625;28;20578;-77
2021/08/21 07:57:09;;;;;;;3.60;3.30;;;19.90;99.90;;;;;;4982249;28;20393;-74
2021/08/21 07:59:35;;;;;;;3.42;3.13;;;19.90;99.90;;;;;;4979370;28;20476;-75
2021/08/21 08:02:00;;;;;;;3.47;3.17;;;20.00;99.90;;;;;;4978406;28;20815;-77
2021/08/21 08:04:26;;;;;;;3.90;3.50;;;20.20;99.90;;;;;;4969004;28;20386;-77
2021/08/21 08:06:52;;;;;;;3.05;2.78;;;20.40;99.90;;;;;;4963680;28;20395;-76
2021/08/21 08:09:17;;;;;;;3.20;2.83;;;20.60;99.90;;;;;;4961267;28;20392;-76
2021/08/21 08:11:43;;;;;;;3.95;3.17;;;20.90;99.90;;;;;;4967355;28;20386;-76
2021/08/21 08:14:09;;;;;;;3.03;2.73;;;20.90;99.90;;;;;;4957346;28;20949;-74
2021/08/21 08:16:34;;;;;;;3.07;2.80;;;21.10;99.90;;;;;;4980362;28;20423;-74
2021/08/21 08:19:00;;;;;;;3.00;2.80;;;21.10;99.90;;;;;;5005643;28;20484;-74
2021/08/21 08:21:26;;;;;;;3.13;2.87;;;21.10;99.90;;;;;;4968714;28;20396;-73
2021/08/21 08:23:53;;;;;;;3.27;2.97;;;21.20;99.90;;;;;;5000635;28;20396;-73
2021/08/21 08:26:18;;;;;;;3.08;2.80;;;21.30;99.90;;;;;;4984514;28;20409;-74
2021/08/21 08:28:44;;;;;;;3.00;2.80;;;21.40;99.90;;;;;;4964142;28;20431;-74
2021/08/21 08:31:10;;;;;;;3.15;2.88;;;21.40;99.90;;;;;;4998394;28;20420;-74
2021/08/21 08:33:35;;;;;;;2.70;2.50;;;21.40;99.90;;;;;;4978058;28;20881;-74
2021/08/21 08:36:01;;;;;;;2.90;2.70;;;21.40;99.90;;;;;;4965282;28;21061;-73
2021/08/21 08:38:27;;;;;;;2.30;2.10;;;21.40;99.90;;;;;;4978883;28;20889;-73
2021/08/21 08:40:53;;;;;;;2.63;2.43;;;21.30;99.90;;;;;;4962960;28;20397;-73
2021/08/21 08:43:19;;;;;;;2.53;2.33;;;21.40;99.90;;;;;;4977953;28;20400;-73
2021/08/21 08:45:46;;;;;;;2.30;2.20;;;21.50;99.90;;;;;;4982016;28;20401;-73
2021/08/21 08:48:13;;;;;;;2.78;2.58;;;21.70;99.90;;;;;;4979141;28;20458;-73
2021/08/21 08:50:39;;;;;;;2.40;2.20;;;21.70;99.90;;;;;;4964277;28;20907;-73
2021/08/21 08:53:07;;;;;;;2.33;2.13;;;21.80;99.90;;;;;;4962894;28;20408;-73
2021/08/21 08:55:33;;;;;;;3.90;2.17;;;21.90;99.90;;;;;;4965839;28;20404;-73
2021/08/21 08:57:58;;;;;;;2.10;1.90;;;22.00;99.90;;;;;;4993314;28;20389;-73
2021/08/21 09:00:28;;;;;;;1.90;1.70;;;22.10;99.90;;;;;;4955349;28;20433;-73
2021/08/21 09:02:57;;;;;;;1.60;1.50;;;22.20;99.90;;;;;;4979268;28;20499;-73
2021/08/21 09:05:25;;;;;;;2.03;1.73;;;22.40;99.90;;;;;;4982981;28;20401;-73
2021/08/21 09:07:52;;;;;;;1.60;1.50;;;22.40;99.90;;;;;;4980496;28;20415;-74
2021/08/21 09:10:24;;;;;;;6.43;2.13;;;22.50;99.90;;;;;;4964793;28;20396;-73
2021/08/21 09:13:07;;;;;;;1.95;1.85;;;22.50;99.90;;;;;;4978200;28;20508;-73
2021/08/21 09:15:35;;;;;;;1.95;1.85;;;22.60;99.90;;;;;;4980108;28;20405;-73
2021/08/21 09:18:13;;;;;;;3.87;2.17;;;22.70;99.90;;;;;;4978049;28;20463;-75
2021/08/21 09:20:48;;;;;;;2.10;2.00;;;22.80;99.90;;;;;;4980500;28;20478;-76
2021/08/21 09:23:35;;;;;;;2.40;2.20;;;23.00;99.90;;;;;;4972972;28;20546;-76
2021/08/21 09:26:18;;;;;;;2.00;1.90;;;23.00;99.90;;;;;;4981760;28;20393;-74
2021/08/21 09:28:45;;;;;;;2.22;2.10;;;23.10;99.90;;;;;;4964371;28;20416;-73
2021/08/21 09:31:17;;;;;;;2.30;2.10;;;23.10;99.90;;;;;;4978642;28;20423;-75
2021/08/21 09:33:50;;;;;;;1.92;1.83;;;23.30;99.90;;;;;;4995487;28;20421;-73
2021/08/21 09:36:45;;;;;;;1.83;1.73;;;23.50;99.90;;;;;;4995085;28;20401;-73
2021/08/21 09:39:11;;;;;;;2.22;2.03;;;23.60;99.90;;;;;;4952957;28;20406;-73
2021/08/21 09:41:58;;;;;;;2.38;2.17;;;23.70;99.90;;;;;;4959173;28;20501;-74
2021/08/21 09:44:31;;;;;;;1.90;1.80;;;23.90;99.90;;;;;;4959059;28;20462;-74
2021/08/21 09:47:28;;;;;;;2.33;2.10;;;24.10;99.90;;;;;;4994445;28;20402;-73
2021/08/21 09:50:18;;;;;;;2.40;2.00;;;24.30;99.90;;;;;;4989290;28;21177;-74
2021/08/21 09:52:47;;;;;;;2.00;1.90;;;24.30;99.90;;;;;;4986221;28;20498;-74
2021/08/21 09:55:20;;;;;;;2.40;2.20;;;24.50;99.90;;;;;;4966295;28;20401;-73
2021/08/21 09:57:59;;;;;;;2.17;1.97;;;24.80;99.90;;;;;;4982700;28;21084;-74
2021/08/21 10:00:26;;;;;;;2.00;1.90;;;24.90;99.90;;;;;;4987392;28;20397;-74
2021/08/21 10:02:51;;;;;;;5.30;1.98;;;25.10;99.90;;;;;;4978372;28;20417;-74
2021/08/21 10:05:17;;;;;;;3.30;1.80;;;25.60;99.90;;;;;;4962716;28;20385;-74
2021/08/21 10:07:47;;;;;;;2.22;2.03;;;25.90;99.90;;;;;;4993866;28;20778;-74
2021/08/21 10:10:14;;;;;;;2.28;1.98;;;26.00;99.90;;;;;;4964738;28;20395;-74
2021/08/21 10:12:43;;;;;;;1.90;1.80;;;26.30;99.90;;;;;;4977348;28;20398;-74
2021/08/21 10:15:09;;;;;;;2.20;2.00;;;26.40;99.90;;;;;;4979781;28;20415;-75
2021/08/21 10:17:35;;;;;;;1.85;1.75;;;26.40;99.90;;;;;;4976663;28;20408;-74
2021/08/21 10:20:01;;;;;;;1.63;1.53;;;26.20;99.90;;;;;;4963085;28;20498;-74
2021/08/21 10:22:27;;;;;;;2.10;1.90;;;26.40;99.90;;;;;;4981426;28;20412;-74
2021/08/21 10:24:53;;;;;;;2.10;2.00;;;26.60;99.90;;;;;;4962158;28;20401;-73
2021/08/21 10:27:23;;;;;;;2.33;2.13;;;26.90;99.90;;;;;;4976759;28;20413;-74
2021/08/21 10:30:08;;;;;;;1.77;1.67;;;27.10;99.90;;;;;;4979293;28;20400;-74
2021/08/21 10:32:40;;;;;;;2.22;1.95;;;27.40;99.90;;;;;;4994247;28;20442;-74
2021/08/21 10:35:06;;;;;;;1.90;1.70;;;27.40;99.90;;;;;;4940368;28;20418;-73
2021/08/21 10:37:45;;;;;;;2.23;2.03;;;27.40;99.90;;;;;;4960397;28;20405;-74
2021/08/21 10:40:26;;;;;;;2.38;1.90;;;27.50;99.90;;;;;;4962995;28;20487;-75
2021/08/21 10:43:03;;;;;;;1.70;1.60;;;27.80;99.90;;;;;;4985672;28;20441;-74
2021/08/21 10:45:43;;;;;;;1.85;1.65;;;27.90;99.90;;;;;;4978953;28;20389;-74
2021/08/21 10:48:38;;;;;;;2.30;2.10;;;28.10;99.90;;;;;;4985445;28;20412;-74
2021/08/21 10:51:04;;;;;;;3.47;2.13;;;28.30;99.90;;;;;;5003515;28;20523;-74
2021/08/21 10:53:35;;;;;;;2.00;1.90;;;28.40;99.90;;;;;;4995593;28;20403;-74
2021/08/21 10:56:02;;;;;;;2.30;2.10;;;28.50;99.90;;;;;;4978573;28;20413;-74
2021/08/21 10:58:29;;;;;;;2.28;2.08;;;28.60;99.90;;;;;;4977710;28;20405;-75
2021/08/21 11:01:03;;;;;;;2.20;2.10;;;28.80;99.90;;;;;;4961693;28;20407;-74
2021/08/21 11:03:28;;;;;;;2.15;2.00;;;28.80;99.90;;;;;;4992901;28;20770;-74
2021/08/21 11:05:54;;;;;;;2.60;2.40;;;28.90;99.90;;;;;;4996342;28;20400;-74
2021/08/21 11:08:21;;;;;;;2.47;2.25;;;29.00;99.90;;;;;;4969992;28;20403;-74
2021/08/21 11:10:46;;;;;;;3.40;2.70;;;29.20;99.90;;;;;;4977741;28;20401;-74
2021/08/21 11:13:55;;;;;;;2.85;2.63;;;29.30;99.90;;;;;;4961091;28;20411;-74
2021/08/21 11:16:22;;;;;;;2.42;2.22;;;29.30;99.90;;;;;;4968906;28;20479;-75
2021/08/21 11:18:49;;;;;;;2.50;2.30;;;29.40;99.90;;;;;;4965089;28;20447;-75
2021/08/21 11:21:34;;;;;;;2.55;2.35;;;29.60;99.90;;;;;;4963565;28;20407;-74
2021/08/21 11:24:00;;;;;;;2.08;1.98;;;29.80;99.90;;;;;;4967215;28;20413;-75
2021/08/21 11:26:25;;;;;;;2.53;2.17;;;30.00;99.90;;;;;;4956903;28;20799;-75
2021/08/21 11:29:08;;;;;;;2.30;2.20;;;30.40;99.90;;;;;;4976414;28;20487;-75
2021/08/21 11:31:59;;;;;;;2.83;2.38;;;30.20;99.90;;;;;;4998780;28;20401;-75
2021/08/21 11:34:24;;;;;;;2.40;2.08;;;30.30;99.90;;;;;;4979947;28;20427;-74
2021/08/21 11:36:50;;;;;;;2.08;1.98;;;30.40;99.90;;;;;;4974504;28;20799;-74
2021/08/21 11:39:16;;;;;;;2.60;2.40;;;30.60;99.90;;;;;;4991208;28;20391;-74
2021/08/21 11:41:55;;;;;;;3.10;2.80;;;30.40;97.40;;;;;;4974023;28;20416;-74
2021/08/21 11:44:28;;;;;;;2.42;2.22;;;30.30;99.50;;;;;;4958868;28;21090;-74
2021/08/21 11:47:09;;;;;;;2.43;2.10;;;30.60;99.90;;;;;;4979551;28;20409;-74
2021/08/21 11:49:37;;;;;;;2.17;2.00;;;31.20;99.90;;;;;;4974558;28;20405;-74
2021/08/21 11:52:04;;;;;;;2.03;1.92;;;31.50;98.80;;;;;;4983250;28;20405;-74
2021/08/21 11:54:30;;;;;;;1.60;1.50;;;31.70;97.10;;;;;;4959655;28;20431;-74
2021/08/21 11:56:57;;;;;;;2.23;2.00;;;32.00;99.30;;;;;;4991580;28;20448;-74
2021/08/21 11:59:23;;;;;;;2.30;2.10;;;32.10;96.40;;;;;;4974312;28;20440;-74
2021/08/21 12:01:59;;;;;;;1.80;1.70;;;32.20;95.40;;;;;;4957661;28;20428;-74
2021/08/21 12:04:28;;;;;;;1.90;1.80;;;32.30;95.80;;;;;;4958976;28;20415;-74
2021/08/21 12:06:54;;;;;;;1.60;1.50;;;32.40;93.50;;;;;;4991198;28;20401;-74
2021/08/21 12:09:19;;;;;;;2.10;2.00;;;32.40;91.60;;;;;;4958631;28;20408;-74
2021/08/21 12:11:46;;;;;;;1.70;1.60;;;32.10;90.80;;;;;;4991955;28;20401;-74
2021/08/21 12:14:13;;;;;;;1.80;1.70;;;32.20;91.90;;;;;;4976890;28;20472;-74
2021/08/21 12:16:39;;;;;;;1.90;1.80;;;32.30;92.00;;;;;;4957638;28;20426;-76
2021/08/21 12:19:05;;;;;;;2.20;1.80;;;32.50;91.70;;;;;;4975668;28;20488;-75
2021/08/21 12:21:30;;;;;;;1.63;1.52;;;32.40;89.90;;;;;;4959301;28;20479;-74
2021/08/21 12:23:56;;;;;;;2.03;1.83;;;32.30;86.20;;;;;;4958290;28;20401;-74
2021/08/21 12:26:44;;;;;;;1.80;1.70;;;32.30;92.80;;;;;;4958744;28;20397;-75
2021/08/21 12:29:30;;;;;;;1.80;1.70;;;32.40;90.00;;;;;;4965633;28;20405;-75
2021/08/21 12:32:00;;;;;;;1.70;1.60;;;32.40;87.20;;;;;;4957460;28;20979;-74
2021/08/21 12:34:27;;;;;;;2.00;1.85;;;32.70;91.50;;;;;;4973407;28;20408;-74
2021/08/21 12:36:56;;;;;;;2.00;1.90;;;32.90;87.90;;;;;;4975006;28;20408;-74
2021/08/21 12:39:28;;;;;;;1.60;1.50;;;33.00;91.10;;;;;;4976321;28;20420;-74
2021/08/21 12:42:04;;;;;;;1.80;1.70;;;33.20;84.40;;;;;;4946805;28;20404;-74
2021/08/21 12:44:34;;;;;;;2.00;1.80;;;33.20;89.40;;;;;;4963194;28;20392;-74
2021/08/21 12:47:05;;;;;;;1.90;1.80;;;33.30;89.20;;;;;;4977449;28;20404;-74
2021/08/21 12:49:41;;;;;;;1.80;1.70;;;33.20;83.80;;;;;;4990782;28;20909;-74
2021/08/21 12:52:12;;;;;;;3.53;1.83;;;32.90;82.90;;;;;;4979626;28;20861;-74
2021/08/21 12:54:40;;;;;;;1.70;1.60;;;32.60;90.30;;;;;;4965250;28;20913;-74
2021/08/21 12:57:28;;;;;;;1.65;1.55;;;33.00;90.00;;;;;;4986975;28;20409;-74